createdAt,value
2018-08-04T00:01:37.407Z,60.80
2018-08-04T00:04:06.206Z,60.90
2018-08-04T00:06:35.763Z,61.00
2018-08-04T00:09:07.301Z,61.10
2018-08-04T00:11:35.772Z,61.30
2018-08-04T00:14:04.249Z,61.50
2018-08-04T00:16:32.843Z,61.90
2018-08-04T00:19:01.442Z,62.30
2018-08-04T00:21:29.937Z,62.30
2018-08-04T00:23:58.516Z,62.50
2018-08-04T00:26:31.184Z,62.50
2018-08-04T00:29:00.960Z,62.70
2018-08-04T00:31:30.912Z,62.70
2018-08-04T00:33:59.397Z,62.60
2018-08-04T00:36:28.023Z,62.50
2018-08-04T00:38:56.693Z,62.50
2018-08-04T00:41:25.221Z,62.40
2018-08-04T00:43:53.727Z,62.50
2018-08-04T00:46:22.189Z,62.50
2018-08-04T00:48:50.613Z,62.40
2018-08-04T00:51:19.126Z,62.50
2018-08-04T00:53:47.564Z,62.90
2018-08-04T00:56:16.009Z,63.30
2018-08-04T00:58:44.465Z,64.10
2018-08-04T01:01:12.941Z,64.60
2018-08-04T01:06:09.593Z,64.50
2018-08-04T01:08:38.037Z,64.50
2018-08-04T01:11:06.673Z,65.00
2018-08-04T01:13:35.162Z,65.70
2018-08-04T01:16:03.637Z,66.00
2018-08-04T01:18:32.073Z,66.80
2018-08-04T01:21:00.584Z,66.60
2018-08-04T01:25:57.181Z,66.90
2018-08-04T01:28:25.668Z,67.30
2018-08-04T01:30:54.109Z,67.10
2018-08-04T01:33:22.561Z,66.40
2018-08-04T01:35:51.037Z,66.40
2018-08-04T01:38:19.486Z,66.80
2018-08-04T01:40:47.932Z,66.80
2018-08-04T01:43:16.427Z,66.30
2018-08-04T01:45:44.847Z,65.70
2018-08-04T01:48:13.285Z,66.20
2018-08-04T01:50:41.875Z,66.20
2018-08-04T01:53:10.396Z,66.10
2018-08-04T01:55:38.849Z,66.10
2018-08-04T01:58:07.379Z,65.80
2018-08-04T02:00:35.828Z,65.40
2018-08-04T02:03:04.293Z,65.90
2018-08-04T02:05:32.880Z,65.90
2018-08-04T02:08:01.341Z,66.20
2018-08-04T02:10:29.816Z,66.10
2018-08-04T02:12:58.454Z,66.40
2018-08-04T02:15:26.918Z,66.50
2018-08-04T02:17:55.434Z,66.30
2018-08-04T02:20:23.887Z,66.30
2018-08-04T02:25:20.430Z,66.80
2018-08-04T02:27:48.934Z,67.60
2018-08-04T02:30:17.405Z,68.10
2018-08-04T02:32:45.850Z,68.20
2018-08-04T02:35:14.311Z,68.30
2018-08-04T02:37:42.753Z,68.40
2018-08-04T02:40:11.249Z,68.40
2018-08-04T02:42:39.721Z,68.40
2018-08-04T02:45:08.810Z,68.60
2018-08-04T02:47:37.323Z,69.00
2018-08-04T02:50:06.813Z,68.90
2018-08-04T02:52:35.529Z,68.90
2018-08-04T02:55:04.055Z,68.50
2018-08-04T02:57:32.525Z,68.20
2018-08-04T03:00:00.985Z,68.00
2018-08-04T03:02:29.522Z,67.70
2018-08-04T03:04:57.989Z,67.50
2018-08-04T03:07:26.425Z,67.40
2018-08-04T03:09:54.903Z,67.60
2018-08-04T03:12:23.406Z,67.50
2018-08-04T03:14:51.849Z,67.20
2018-08-04T03:17:20.338Z,67.00
2018-08-04T03:19:48.817Z,67.20
2018-08-04T03:22:17.246Z,66.20
2018-08-04T03:24:45.685Z,65.70
2018-08-04T03:27:14.194Z,65.30
2018-08-04T03:29:42.827Z,64.90
2018-08-04T03:32:11.269Z,64.80
2018-08-04T03:34:39.724Z,64.60
2018-08-04T03:37:08.192Z,64.50
2018-08-04T03:39:36.744Z,64.60
2018-08-04T03:42:05.254Z,64.90
2018-08-04T03:44:33.686Z,64.90
2018-08-04T03:47:02.113Z,65.10
2018-08-04T03:51:58.750Z,65.80
2018-08-04T03:54:27.193Z,66.10
2018-08-04T03:56:55.686Z,66.30
2018-08-04T03:59:24.120Z,66.40
2018-08-04T04:01:52.549Z,66.60
2018-08-04T04:04:21.085Z,66.80
2018-08-04T04:06:49.553Z,67.00
2018-08-04T04:09:17.999Z,67.40
2018-08-04T04:11:46.470Z,67.10
2018-08-04T04:14:14.938Z,67.20
2018-08-04T04:19:11.555Z,67.70
2018-08-04T04:21:39.988Z,68.00
2018-08-04T04:24:08.428Z,67.60
2018-08-04T04:26:36.964Z,67.40
2018-08-04T04:29:05.492Z,67.00
2018-08-04T04:31:33.950Z,66.90
2018-08-04T04:34:02.514Z,68.00
2018-08-04T04:36:31.017Z,67.60
2018-08-04T04:38:59.520Z,68.20
2018-08-04T04:41:28.009Z,69.10
2018-08-04T04:43:56.514Z,68.70
2018-08-04T04:46:24.982Z,69.20
2018-08-04T04:48:53.441Z,68.50
2018-08-04T04:51:21.869Z,68.60
2018-08-04T04:53:50.285Z,70.90
2018-08-04T04:56:18.760Z,71.10
2018-08-04T04:58:47.181Z,71.70
2018-08-04T05:01:15.623Z,73.60
2018-08-04T05:03:44.138Z,74.30
2018-08-04T05:06:12.587Z,75.00
2018-08-04T05:08:41.031Z,76.00
2018-08-04T05:11:09.537Z,75.80
2018-08-04T05:16:06.097Z,76.30
2018-08-04T05:18:34.592Z,76.80
2018-08-04T05:21:03.081Z,78.00
2018-08-04T05:23:31.509Z,79.00
2018-08-04T05:26:00.037Z,80.20
2018-08-04T05:28:28.467Z,80.40
2018-08-04T05:30:56.929Z,80.30
2018-08-04T05:33:25.428Z,80.80
2018-08-04T05:35:54.071Z,81.20
2018-08-04T05:38:22.702Z,81.30
2018-08-04T05:40:51.193Z,81.20
2018-08-04T05:43:19.674Z,81.50
2018-08-04T05:45:48.118Z,81.30
2018-08-04T05:48:16.598Z,81.60
2018-08-04T05:50:45.065Z,82.00
2018-08-04T05:53:13.550Z,82.30
2018-08-04T05:55:42.044Z,82.50
2018-08-04T05:58:10.473Z,82.80
2018-08-04T06:00:39.012Z,82.70
2018-08-04T06:03:07.473Z,82.50
2018-08-04T06:05:35.917Z,83.10
2018-08-04T06:08:04.396Z,83.30
2018-08-04T06:10:32.967Z,83.70
2018-08-04T06:13:01.413Z,84.10
2018-08-04T06:15:29.845Z,84.40
2018-08-04T06:17:58.375Z,85.40
2018-08-04T06:20:26.882Z,87.30
2018-08-04T06:22:55.301Z,87.50
2018-08-04T06:25:23.785Z,87.40
2018-08-04T06:27:52.222Z,87.80
2018-08-04T06:30:20.673Z,87.70
2018-08-04T06:32:49.123Z,87.60
2018-08-04T06:35:17.569Z,87.70
2018-08-04T06:37:46.012Z,87.70
2018-08-04T06:40:14.526Z,87.50
2018-08-04T06:42:42.947Z,87.10
2018-08-04T06:45:11.373Z,88.10
2018-08-04T06:47:39.881Z,87.20
2018-08-04T06:50:08.382Z,85.90
2018-08-04T06:52:37.026Z,85.60
2018-08-04T06:55:05.925Z,85.60
2018-08-04T06:57:34.385Z,84.40
2018-08-04T07:00:02.858Z,82.70
2018-08-04T07:02:31.357Z,82.30
2018-08-04T07:04:59.833Z,81.00
2018-08-04T07:07:28.336Z,80.10
2018-08-04T07:09:56.854Z,78.40
2018-08-04T07:12:25.322Z,77.80
2018-08-04T07:14:53.761Z,78.10
2018-08-04T07:17:22.297Z,76.80
2018-08-04T07:19:50.881Z,76.50
2018-08-04T07:22:19.344Z,76.10
2018-08-04T07:24:47.865Z,76.60
2018-08-04T07:27:16.306Z,76.30
2018-08-04T07:29:44.753Z,76.70
2018-08-04T07:32:13.280Z,76.60
2018-08-04T07:34:41.735Z,76.60
2018-08-04T07:37:10.174Z,77.00
2018-08-04T07:39:38.731Z,76.80
2018-08-04T07:42:07.461Z,76.10
2018-08-04T07:44:36.113Z,75.30
2018-08-04T07:47:04.721Z,75.20
2018-08-04T07:49:33.469Z,75.40
2018-08-04T07:52:01.897Z,73.50
2018-08-04T07:54:30.369Z,74.80
2018-08-04T07:56:58.832Z,75.20
2018-08-04T07:59:27.386Z,75.80
2018-08-04T08:01:55.877Z,75.20
2018-08-04T08:04:24.313Z,75.30
2018-08-04T08:06:52.791Z,75.40
2018-08-04T08:09:21.286Z,76.30
2018-08-04T08:11:49.789Z,77.90
2018-08-04T08:14:18.277Z,78.40
2018-08-04T08:16:46.769Z,79.00
2018-08-04T08:19:15.261Z,78.90
2018-08-04T08:21:43.729Z,79.20
2018-08-04T08:24:12.285Z,78.10
2018-08-04T08:26:40.772Z,75.20
2018-08-04T08:29:09.227Z,74.70
2018-08-04T08:31:37.802Z,75.00
2018-08-04T08:34:06.273Z,74.20
2018-08-04T08:36:34.704Z,73.70
2018-08-04T08:39:03.373Z,73.40
2018-08-04T08:43:59.945Z,71.50
2018-08-04T08:46:28.457Z,70.30
2018-08-04T08:48:56.941Z,70.00
2018-08-04T08:51:25.474Z,69.30
2018-08-04T08:53:54.060Z,68.00
2018-08-04T08:56:22.518Z,69.00
2018-08-04T08:58:50.969Z,68.10
2018-08-04T09:01:19.598Z,69.50
2018-08-04T09:03:48.065Z,67.90
2018-08-04T09:06:16.549Z,68.80
2018-08-04T09:08:45.117Z,66.90
2018-08-04T09:11:13.580Z,66.90
2018-08-04T09:13:42.081Z,66.50
2018-08-04T09:16:11.346Z,66.30
2018-08-04T09:18:39.853Z,66.30
2018-08-04T09:21:08.429Z,67.10
2018-08-04T09:23:36.969Z,66.50
2018-08-04T09:26:05.638Z,67.00
2018-08-04T09:28:34.086Z,66.30
2018-08-04T09:31:02.607Z,65.30
2018-08-04T09:33:31.057Z,64.30
2018-08-04T09:35:59.526Z,64.30
2018-08-04T09:38:28.089Z,65.40
2018-08-04T09:40:56.560Z,65.10
2018-08-04T09:45:53.214Z,65.00
2018-08-04T09:48:21.708Z,64.30
2018-08-04T09:50:50.177Z,62.50
2018-08-04T09:53:18.713Z,62.40
2018-08-04T09:55:47.168Z,62.50
2018-08-04T09:58:15.645Z,62.90
2018-08-04T10:00:49.361Z,60.90
2018-08-04T10:03:17.846Z,61.60
2018-08-04T10:05:46.324Z,61.30
2018-08-04T10:08:14.861Z,61.40
2018-08-04T10:10:43.313Z,60.50
2018-08-04T10:13:11.786Z,60.00
2018-08-04T10:15:40.471Z,61.00
2018-08-04T10:18:09.013Z,59.90
2018-08-04T10:20:37.487Z,59.10
2018-08-04T10:23:06.217Z,59.10
2018-08-04T10:25:34.688Z,59.10
2018-08-04T10:28:03.170Z,58.00
2018-08-04T10:30:31.677Z,58.60
2018-08-04T10:33:00.147Z,58.80
2018-08-04T10:35:28.647Z,57.70
2018-08-04T10:37:57.151Z,57.60
2018-08-04T10:40:25.641Z,57.00
2018-08-04T10:42:54.109Z,56.80
2018-08-04T10:45:22.617Z,57.20
2018-08-04T10:47:51.113Z,57.50
2018-08-04T10:50:19.630Z,56.40
2018-08-04T10:52:48.217Z,57.20
2018-08-04T10:57:44.877Z,57.30
2018-08-04T11:00:13.537Z,55.80
2018-08-04T11:02:42.017Z,55.70
2018-08-04T11:05:10.521Z,55.40
2018-08-04T11:07:39.005Z,54.70
2018-08-04T11:10:07.737Z,55.40
2018-08-04T11:12:36.236Z,55.10
2018-08-04T11:15:04.734Z,55.50
2018-08-04T11:17:33.222Z,55.40
2018-08-04T11:20:01.669Z,55.60
2018-08-04T11:22:30.163Z,55.10
2018-08-04T11:24:58.620Z,54.80
2018-08-04T11:27:27.311Z,55.70
2018-08-04T11:29:55.858Z,54.00
2018-08-04T11:32:24.341Z,55.20
2018-08-04T11:34:52.821Z,54.20
2018-08-04T11:37:21.285Z,54.50
2018-08-04T11:39:49.941Z,54.40
2018-08-04T11:42:18.409Z,55.20
2018-08-04T11:44:46.929Z,54.00
2018-08-04T11:47:15.415Z,52.80
2018-08-04T11:49:43.870Z,52.70
2018-08-04T11:52:12.413Z,52.40
2018-08-04T11:54:40.874Z,51.40
2018-08-04T11:57:09.337Z,51.80
2018-08-04T11:59:37.885Z,52.20
2018-08-04T12:04:34.477Z,52.60
2018-08-04T12:07:03.114Z,51.00
2018-08-04T12:09:31.590Z,51.20
2018-08-04T12:12:00.050Z,51.60
2018-08-04T12:14:28.585Z,51.20
2018-08-04T12:16:57.058Z,52.40
2018-08-04T12:19:25.638Z,52.80
2018-08-04T12:21:54.233Z,52.90
2018-08-04T12:24:22.697Z,53.20
2018-08-04T12:26:51.178Z,53.20
2018-08-04T12:29:19.694Z,54.20
2018-08-04T12:31:48.134Z,54.60
2018-08-04T12:34:16.648Z,52.50
2018-08-04T12:36:45.170Z,53.00
2018-08-04T12:39:13.633Z,54.10
2018-08-04T12:41:42.114Z,53.50
2018-08-04T12:44:10.701Z,53.60
2018-08-04T12:46:39.283Z,53.90
2018-08-04T12:49:08.081Z,54.60
2018-08-04T12:51:36.573Z,55.50
2018-08-04T12:54:05.109Z,54.50
2018-08-04T12:56:33.702Z,54.20
2018-08-04T12:59:02.238Z,54.60
2018-08-04T13:01:30.716Z,54.60
2018-08-04T13:03:59.153Z,54.30
2018-08-04T13:08:56.029Z,53.00
2018-08-04T13:11:24.448Z,52.20
2018-08-04T13:13:52.948Z,51.90
2018-08-04T13:16:21.397Z,51.70
2018-08-04T13:18:49.860Z,51.80
2018-08-04T13:21:18.385Z,51.70
2018-08-04T13:23:46.843Z,51.20
2018-08-04T13:26:15.286Z,51.20
2018-08-04T13:28:43.766Z,51.30
2018-08-04T13:31:12.218Z,50.70
2018-08-04T13:33:40.716Z,51.00
2018-08-04T13:36:09.245Z,50.80
2018-08-04T13:38:37.688Z,49.70
2018-08-04T13:41:06.129Z,49.20
2018-08-04T13:43:34.625Z,49.10
2018-08-04T13:46:03.229Z,50.00
2018-08-04T13:48:31.692Z,50.60
2018-08-04T13:51:00.255Z,51.50
2018-08-04T13:53:28.681Z,51.20
2018-08-04T13:55:57.156Z,51.50
2018-08-04T13:58:25.637Z,52.10
2018-08-04T14:00:54.185Z,51.60
2018-08-04T14:03:22.613Z,51.50
2018-08-04T14:05:51.183Z,51.50
2018-08-04T14:08:19.721Z,51.70
2018-08-04T14:10:48.221Z,51.50
2018-08-04T14:13:16.697Z,51.70
2018-08-04T14:15:45.148Z,52.20
2018-08-04T14:18:13.578Z,53.00
2018-08-04T14:20:42.085Z,52.70
2018-08-04T14:23:10.521Z,53.50
2018-08-04T14:25:38.978Z,54.10
2018-08-04T14:28:07.484Z,54.40
2018-08-04T14:30:36.000Z,54.30
2018-08-04T14:33:04.489Z,54.40
2018-08-04T14:35:32.985Z,54.50
2018-08-04T14:38:01.448Z,53.80
2018-08-04T14:40:29.889Z,54.00
2018-08-04T14:42:58.429Z,53.60
2018-08-04T14:45:26.845Z,53.70
2018-08-04T14:47:55.310Z,53.20
2018-08-04T14:50:23.833Z,53.60
2018-08-04T14:52:52.275Z,52.80
2018-08-04T14:55:20.740Z,52.90
2018-08-04T14:57:49.266Z,53.30
2018-08-04T15:00:17.705Z,53.10
2018-08-04T15:02:46.179Z,53.10
2018-08-04T15:05:14.673Z,52.80
2018-08-04T15:07:43.173Z,53.60
2018-08-04T15:10:11.730Z,54.40
2018-08-04T15:12:40.584Z,52.90
2018-08-04T15:15:09.173Z,53.10
2018-08-04T15:17:37.772Z,53.90
2018-08-04T15:20:06.852Z,53.50
2018-08-04T15:22:35.355Z,53.40
2018-08-04T15:25:05.229Z,53.10
2018-08-04T15:27:34.481Z,53.50
2018-08-04T15:30:03.215Z,53.30
2018-08-04T15:32:31.882Z,53.10
2018-08-04T15:35:00.629Z,52.20
2018-08-04T15:37:29.373Z,51.40
2018-08-04T15:39:57.900Z,50.90
2018-08-04T15:42:26.377Z,50.90
2018-08-04T15:44:54.789Z,50.30
2018-08-04T15:47:23.229Z,50.10
2018-08-04T15:49:51.828Z,50.10
2018-08-04T15:52:20.345Z,49.80
2018-08-04T15:54:48.796Z,49.10
2018-08-04T15:57:17.317Z,48.90
2018-08-04T15:59:45.785Z,49.70
2018-08-04T16:02:14.227Z,49.10
2018-08-04T16:04:42.709Z,48.50
2018-08-04T16:07:11.158Z,48.20
2018-08-04T16:09:39.609Z,48.10
2018-08-04T16:12:08.296Z,48.20
2018-08-04T16:14:36.757Z,48.30
2018-08-04T16:17:05.573Z,48.40
2018-08-04T16:19:34.145Z,48.20
2018-08-04T16:24:30.791Z,46.00
2018-08-04T16:26:59.585Z,45.20
2018-08-04T16:29:28.049Z,44.90
2018-08-04T16:31:56.525Z,44.30
2018-08-04T16:34:25.025Z,44.30
2018-08-04T16:36:53.610Z,44.60
2018-08-04T16:39:22.065Z,44.50
2018-08-04T16:41:50.607Z,44.50
2018-08-04T16:44:19.018Z,44.50
2018-08-04T16:46:47.464Z,44.50
2018-08-04T16:49:15.960Z,44.10
2018-08-04T16:51:44.397Z,44.00
2018-08-04T16:54:12.897Z,44.00
2018-08-04T16:56:41.377Z,44.40
2018-08-04T16:59:09.834Z,45.80
2018-08-04T17:01:38.933Z,47.50
2018-08-04T17:04:07.453Z,49.10
2018-08-04T17:06:35.987Z,50.10
2018-08-04T17:09:07.213Z,51.40
2018-08-04T17:11:35.692Z,52.40
2018-08-04T17:14:04.128Z,53.20
2018-08-04T17:16:32.762Z,53.70
2018-08-04T17:19:01.201Z,54.10
2018-08-04T17:21:29.688Z,54.60
2018-08-04T17:23:58.277Z,54.90
2018-08-04T17:26:26.814Z,55.80
2018-08-04T17:28:55.294Z,55.90
2018-08-04T17:31:23.837Z,56.70
2018-08-04T17:33:52.345Z,56.90
2018-08-04T17:36:20.848Z,57.40
2018-08-04T17:38:49.365Z,57.80
2018-08-04T17:41:18.010Z,58.20
2018-08-04T17:43:46.458Z,58.60
2018-08-04T17:46:14.969Z,59.10
2018-08-04T17:48:43.537Z,59.40
2018-08-04T17:51:12.025Z,59.70
2018-08-04T17:53:40.477Z,60.00
2018-08-04T17:56:09.941Z,60.40
2018-08-04T17:58:38.401Z,60.80
2018-08-04T18:01:07.024Z,61.10
2018-08-04T18:03:35.680Z,61.30
2018-08-04T18:08:32.489Z,62.10
2018-08-04T18:11:01.037Z,62.50
2018-08-04T18:13:29.689Z,62.60
2018-08-04T18:15:58.261Z,62.90
2018-08-04T18:18:26.761Z,63.20
2018-08-04T18:20:55.201Z,63.50
2018-08-04T18:23:23.648Z,63.60
2018-08-04T18:25:52.106Z,64.00
2018-08-04T18:28:20.531Z,64.10
2018-08-04T18:30:48.938Z,64.30
2018-08-04T18:33:17.561Z,64.20
2018-08-04T18:35:46.130Z,64.10
2018-08-04T18:38:14.598Z,64.10
2018-08-04T18:40:43.112Z,63.90
2018-08-04T18:43:11.561Z,64.10
2018-08-04T18:45:40.026Z,64.40
2018-08-04T18:48:08.529Z,64.90
2018-08-04T18:50:37.057Z,65.10
2018-08-04T18:55:33.779Z,66.30
2018-08-04T18:58:02.300Z,66.80
2018-08-04T19:00:30.854Z,67.50
2018-08-04T19:02:59.394Z,68.00
2018-08-04T19:05:27.862Z,68.60
2018-08-04T19:07:56.539Z,68.80
2018-08-04T19:10:25.167Z,68.90
2018-08-04T19:12:53.532Z,69.90
2018-08-04T19:15:22.034Z,69.50
2018-08-04T19:17:50.646Z,70.10
2018-08-04T19:20:19.093Z,70.50
2018-08-04T19:22:47.580Z,70.70
2018-08-04T19:25:16.101Z,71.30
2018-08-04T19:27:44.590Z,71.80
2018-08-04T19:30:13.126Z,72.10
2018-08-04T19:32:41.681Z,72.40
2018-08-04T19:35:10.130Z,72.70
2018-08-04T19:37:38.580Z,72.70
2018-08-04T19:40:07.133Z,72.90
2018-08-04T19:42:35.601Z,73.00
2018-08-04T19:45:04.178Z,73.30
2018-08-04T19:47:32.777Z,73.80
2018-08-04T19:50:02.013Z,73.70
2018-08-04T19:52:30.477Z,74.10
2018-08-04T19:54:58.998Z,75.10
2018-08-04T19:57:27.501Z,74.60
2018-08-04T19:59:56.025Z,74.90
2018-08-04T20:02:24.481Z,75.10
2018-08-04T20:04:52.904Z,75.50
2018-08-04T20:07:21.357Z,75.80
2018-08-04T20:09:49.843Z,75.80
2018-08-04T20:12:18.341Z,76.30
2018-08-04T20:17:15.081Z,76.90
2018-08-04T20:19:43.673Z,77.00
2018-08-04T20:22:14.248Z,77.00
2018-08-04T20:24:42.737Z,77.40
2018-08-04T20:27:11.186Z,77.30
2018-08-04T20:29:39.936Z,77.70
2018-08-04T20:32:08.933Z,77.70
2018-08-04T20:34:37.449Z,77.50
2018-08-04T20:37:05.972Z,77.50
2018-08-04T20:39:34.686Z,77.40
2018-08-04T20:42:03.385Z,77.20
2018-08-04T20:44:31.886Z,77.10
2018-08-04T20:47:00.373Z,77.10
2018-08-04T20:49:29.054Z,77.20
2018-08-04T20:51:57.507Z,77.30
2018-08-04T20:54:26.082Z,77.50
2018-08-04T20:56:54.544Z,77.50
2018-08-04T20:59:24.120Z,77.80
2018-08-04T21:02:02.562Z,77.90
2018-08-04T21:04:32.305Z,78.00
2018-08-04T21:07:01.249Z,78.10
2018-08-04T21:09:29.757Z,78.30
2018-08-04T21:11:58.340Z,78.40
2018-08-04T21:14:27.727Z,78.30
2018-08-04T21:16:57.017Z,78.50
2018-08-04T21:19:26.041Z,78.60
2018-08-04T21:21:54.537Z,78.60
2018-08-04T21:24:24.256Z,78.60
2018-08-04T21:26:53.619Z,78.70
2018-08-04T21:29:22.529Z,78.70
2018-08-04T21:31:51.194Z,78.70
2018-08-04T21:34:19.939Z,78.60
2018-08-04T21:36:48.465Z,78.60
2018-08-04T21:39:18.356Z,78.40
2018-08-04T21:41:47.296Z,78.50
2018-08-04T21:44:15.782Z,78.50
2018-08-04T21:46:46.321Z,78.30
2018-08-04T21:49:14.881Z,78.40
2018-08-04T21:51:44.464Z,78.50
2018-08-04T21:54:14.209Z,78.80
2018-08-04T21:56:43.109Z,79.60
2018-08-04T21:59:11.710Z,80.80
2018-08-04T22:01:44.521Z,82.10
2018-08-04T22:04:13.085Z,83.00
2018-08-04T22:06:53.841Z,92.20
2018-08-04T22:09:24.173Z,94.90
2018-08-04T22:11:52.777Z,97.10
2018-08-04T22:14:21.237Z,98.80
2018-08-04T22:16:49.710Z,99.90
2018-08-04T22:19:18.179Z,99.90
2018-08-04T22:21:46.708Z,99.90
2018-08-04T22:24:15.154Z,99.90
2018-08-04T22:26:43.605Z,99.90
2018-08-04T22:29:12.097Z,99.90
2018-08-04T22:31:40.601Z,99.90
2018-08-04T22:34:09.061Z,99.90
2018-08-04T22:36:37.561Z,99.90
2018-08-04T22:39:06.661Z,99.90
2018-08-04T22:41:35.118Z,99.90
2018-08-04T22:44:03.662Z,99.90
2018-08-04T22:46:32.134Z,99.90
2018-08-04T22:49:00.580Z,99.90
2018-08-04T22:51:29.992Z,99.90
2018-08-04T22:53:58.559Z,99.90
2018-08-04T22:56:27.056Z,99.90
2018-08-04T22:58:55.524Z,99.90
2018-08-04T23:01:24.017Z,99.90
2018-08-04T23:03:52.492Z,99.90
2018-08-04T23:06:21.021Z,99.90
2018-08-04T23:08:49.494Z,99.90
2018-08-04T23:13:46.133Z,99.90
2018-08-04T23:16:15.718Z,99.90
2018-08-04T23:18:44.209Z,99.90
2018-08-04T23:21:12.744Z,99.90
2018-08-04T23:23:41.201Z,99.90
2018-08-04T23:26:09.684Z,99.90
2018-08-04T23:28:38.249Z,99.90
2018-08-04T23:31:06.701Z,99.90
2018-08-04T23:33:35.193Z,99.90
2018-08-04T23:36:03.705Z,99.90
2018-08-04T23:38:32.158Z,99.90
2018-08-04T23:41:00.577Z,99.90
2018-08-04T23:43:29.085Z,99.90
2018-08-04T23:45:57.549Z,99.90
2018-08-04T23:48:25.977Z,99.90
2018-08-04T23:50:54.485Z,99.90
2018-08-04T23:53:22.941Z,99.90
2018-08-04T23:55:51.401Z,99.90
2018-08-04T23:58:19.925Z,99.90
